createdAt,value
2019-02-18T00:00:27.893Z,79.30
2019-02-18T00:01:27.908Z,79.39
2019-02-18T00:02:27.924Z,79.58
2019-02-18T00:03:27.921Z,79.49
2019-02-18T00:04:27.922Z,79.39
2019-02-18T00:05:27.925Z,79.49
2019-02-18T00:06:27.930Z,79.30
2019-02-18T00:07:27.946Z,79.20
2019-02-18T00:08:27.945Z,79.20
2019-02-18T00:09:27.948Z,79.01
2019-02-18T00:10:27.949Z,79.11
2019-02-18T00:11:27.961Z,79.20
2019-02-18T00:12:27.965Z,79.20
2019-02-18T00:13:27.986Z,78.63
2019-02-18T00:14:27.981Z,78.34
2019-02-18T00:15:27.972Z,77.97
2019-02-18T00:16:27.987Z,78.21
2019-02-18T00:17:27.991Z,78.40
2019-02-18T00:18:27.996Z,78.44
2019-02-18T00:19:28.008Z,78.11
2019-02-18T00:20:28.000Z,78.21
2019-02-18T00:21:28.011Z,78.40
2019-02-18T00:22:28.019Z,78.50
2019-02-18T00:23:28.019Z,78.40
2019-02-18T00:24:28.035Z,78.97
2019-02-18T00:25:28.035Z,79.16
2019-02-18T00:26:28.036Z,78.97
2019-02-18T00:27:28.045Z,78.97
2019-02-18T00:28:28.054Z,79.73
2019-02-18T00:29:28.054Z,79.44
2019-02-18T00:30:28.064Z,79.44
2019-02-18T00:31:28.068Z,79.73
2019-02-18T00:32:28.067Z,80.11
2019-02-18T00:33:28.087Z,80.30
2019-02-18T00:34:28.085Z,80.68
2019-02-18T00:35:28.086Z,80.87
2019-02-18T00:36:28.092Z,81.25
2019-02-18T00:37:28.088Z,81.63
2019-02-18T00:38:28.135Z,81.54
2019-02-18T00:39:28.107Z,81.63
2019-02-18T00:40:28.131Z,81.25
2019-02-18T00:41:28.121Z,81.06
2019-02-18T00:42:28.136Z,80.68
2019-02-18T00:43:28.133Z,80.87
2019-02-18T00:44:28.134Z,80.21
2019-02-18T00:45:28.143Z,79.44
2019-02-18T00:46:28.147Z,79.16
2019-02-18T00:47:28.162Z,78.53
2019-02-18T00:48:28.149Z,78.34
2019-02-18T00:49:28.163Z,77.97
2019-02-18T00:50:28.165Z,77.49
2019-02-18T00:51:28.177Z,77.87
2019-02-18T00:52:28.177Z,77.39
2019-02-18T00:53:28.183Z,77.68
2019-02-18T00:54:28.187Z,78.16
2019-02-18T00:55:28.191Z,77.92
2019-02-18T00:56:28.200Z,77.83
2019-02-18T00:57:28.206Z,77.92
2019-02-18T00:58:28.221Z,78.30
2019-02-18T00:59:28.216Z,78.21
2019-02-18T01:00:28.237Z,78.21
2019-02-18T01:01:28.231Z,78.69
2019-02-18T01:02:28.230Z,78.78
2019-02-18T01:03:28.239Z,78.97
2019-02-18T01:04:28.241Z,79.25
2019-02-18T01:05:28.245Z,79.54
2019-02-18T01:06:28.253Z,79.35
2019-02-18T01:07:34.582Z,79.16
2019-02-18T01:08:28.259Z,79.35
2019-02-18T01:09:28.267Z,79.35
2019-02-18T01:10:28.268Z,79.44
2019-02-18T01:11:28.284Z,78.50
2019-02-18T01:12:28.284Z,78.21
2019-02-18T01:13:28.275Z,78.30
2019-02-18T01:14:28.291Z,78.11
2019-02-18T01:15:28.296Z,77.73
2019-02-18T01:16:28.304Z,77.73
2019-02-18T01:17:28.305Z,77.55
2019-02-18T01:18:28.317Z,77.64
2019-02-18T01:19:28.322Z,77.92
2019-02-18T01:20:28.323Z,77.92
2019-02-18T01:21:28.326Z,78.02
2019-02-18T01:22:28.335Z,78.78
2019-02-18T01:23:28.338Z,78.59
2019-02-18T01:24:28.343Z,78.88
2019-02-18T01:25:28.349Z,79.16
2019-02-18T01:26:28.359Z,79.06
2019-02-18T01:27:28.363Z,79.06
2019-02-18T01:28:28.362Z,79.73
2019-02-18T01:29:28.364Z,79.44
2019-02-18T01:30:28.376Z,79.44
2019-02-18T01:31:28.378Z,80.02
2019-02-18T01:32:28.395Z,80.30
2019-02-18T01:33:28.387Z,80.30
2019-02-18T01:34:28.393Z,80.40
2019-02-18T01:35:28.402Z,80.96
2019-02-18T01:36:28.407Z,80.96
2019-02-18T01:37:28.413Z,80.49
2019-02-18T01:38:28.423Z,80.21
2019-02-18T01:39:28.417Z,79.92
2019-02-18T01:40:28.427Z,80.02
2019-02-18T01:41:28.432Z,79.92
2019-02-18T01:42:28.435Z,79.63
2019-02-18T01:43:28.443Z,79.92
2019-02-18T01:44:28.444Z,80.49
2019-02-18T01:45:28.449Z,80.58
2019-02-18T01:46:28.458Z,80.40
2019-02-18T01:47:28.462Z,80.87
2019-02-18T01:48:28.472Z,81.25
2019-02-18T01:49:28.479Z,81.63
2019-02-18T01:50:28.491Z,81.54
2019-02-18T01:51:28.484Z,81.82
2019-02-18T01:52:28.484Z,82.29
2019-02-18T01:53:28.492Z,82.49
2019-02-18T01:54:28.495Z,82.20
2019-02-18T01:55:28.508Z,82.58
2019-02-18T01:56:28.504Z,82.20
2019-02-18T01:57:28.510Z,82.77
2019-02-18T01:58:28.519Z,82.96
2019-02-18T01:59:28.526Z,82.96
2019-02-18T02:00:28.525Z,83.34
2019-02-18T02:01:28.533Z,83.62
2019-02-18T02:02:28.536Z,84.01
2019-02-18T02:03:28.548Z,83.59
2019-02-18T02:04:28.545Z,83.59
2019-02-18T02:05:28.551Z,84.20
2019-02-18T02:06:28.558Z,83.97
2019-02-18T02:07:28.566Z,84.06
2019-02-18T02:08:28.572Z,84.01
2019-02-18T02:09:28.574Z,84.29
2019-02-18T02:10:28.578Z,84.39
2019-02-18T02:11:28.583Z,83.82
2019-02-18T02:12:28.591Z,84.01
2019-02-18T02:13:28.593Z,84.16
2019-02-18T02:14:28.598Z,83.49
2019-02-18T02:15:28.606Z,83.59
2019-02-18T02:16:28.611Z,84.06
2019-02-18T02:17:28.612Z,83.87
2019-02-18T02:18:28.615Z,84.53
2019-02-18T02:19:28.623Z,84.16
2019-02-18T02:20:28.625Z,83.87
2019-02-18T02:21:28.635Z,84.34
2019-02-18T02:22:28.639Z,83.78
2019-02-18T02:23:28.642Z,84.63
2019-02-18T02:24:28.648Z,84.72
2019-02-18T02:25:28.649Z,85.30
2019-02-18T02:26:28.657Z,83.87
2019-02-18T02:27:28.658Z,83.87
2019-02-18T02:28:28.668Z,83.68
2019-02-18T02:29:28.669Z,83.30
2019-02-18T02:30:28.682Z,82.54
2019-02-18T02:31:28.683Z,82.45
2019-02-18T02:32:28.682Z,81.87
2019-02-18T02:33:28.689Z,81.78
2019-02-18T02:34:28.694Z,81.68
2019-02-18T02:35:28.699Z,81.40
2019-02-18T02:36:28.706Z,81.40
2019-02-18T02:37:28.711Z,81.21
2019-02-18T02:38:28.712Z,81.40
2019-02-18T02:39:28.716Z,81.21
2019-02-18T02:40:28.724Z,81.40
2019-02-18T02:41:28.731Z,81.30
2019-02-18T02:42:28.734Z,81.30
2019-02-18T02:43:28.745Z,82.07
2019-02-18T02:44:28.749Z,81.59
2019-02-18T02:45:28.754Z,81.12
2019-02-18T02:46:28.749Z,81.30
2019-02-18T02:47:28.756Z,81.12
2019-02-18T02:48:28.765Z,81.12
2019-02-18T02:49:28.767Z,81.78
2019-02-18T02:50:28.769Z,82.07
2019-02-18T02:51:28.784Z,81.78
2019-02-18T02:52:28.780Z,82.07
2019-02-18T02:53:28.788Z,82.07
2019-02-18T02:54:28.789Z,82.45
2019-02-18T02:55:28.798Z,82.45
2019-02-18T02:56:28.799Z,82.35
2019-02-18T02:57:28.801Z,82.69
2019-02-18T02:58:28.810Z,82.82
2019-02-18T02:59:28.818Z,82.78
2019-02-18T03:00:28.816Z,82.59
2019-02-18T03:01:28.825Z,82.16
2019-02-18T03:02:28.824Z,81.97
2019-02-18T03:04:28.849Z,81.65
2019-02-18T03:05:28.927Z,81.74
2019-02-18T03:06:28.857Z,81.74
2019-02-18T03:07:28.849Z,81.40
2019-02-18T03:08:28.850Z,81.78
2019-02-18T03:09:28.867Z,81.49
2019-02-18T03:10:28.860Z,81.30
2019-02-18T03:11:28.869Z,81.59
2019-02-18T03:12:28.875Z,81.97
2019-02-18T03:13:28.877Z,81.87
2019-02-18T03:14:28.878Z,82.26
2019-02-18T03:15:28.889Z,82.45
2019-02-18T03:16:28.892Z,83.59
2019-02-18T03:17:28.892Z,84.11
2019-02-18T03:18:28.900Z,84.68
2019-02-18T03:19:28.905Z,84.97
2019-02-18T03:20:28.911Z,85.91
2019-02-18T03:21:28.918Z,86.01
2019-02-18T03:22:28.917Z,86.49
2019-02-18T03:23:28.933Z,86.87
2019-02-18T03:24:28.924Z,87.24
2019-02-18T03:25:28.936Z,87.43
2019-02-18T03:26:28.944Z,87.72
2019-02-18T03:27:28.940Z,87.15
2019-02-18T03:28:28.944Z,88.48
2019-02-18T03:29:28.955Z,89.14
2019-02-18T03:30:28.962Z,90.28
2019-02-18T03:31:28.971Z,89.90
2019-02-18T03:32:28.984Z,89.86
2019-02-18T03:33:28.989Z,90.24
2019-02-18T03:34:28.977Z,90.52
2019-02-18T03:35:28.980Z,90.14
2019-02-18T03:36:28.988Z,90.33
2019-02-18T03:37:28.988Z,90.62
2019-02-18T03:38:31.639Z,90.33
2019-02-18T03:39:28.998Z,91.00
2019-02-18T03:40:29.001Z,90.71
2019-02-18T03:41:29.008Z,90.43
2019-02-18T03:42:29.011Z,90.81
2019-02-18T03:43:29.012Z,90.52
2019-02-18T03:44:29.017Z,90.62
2019-02-18T03:45:29.024Z,90.14
2019-02-18T03:46:29.026Z,90.24
2019-02-18T03:47:29.031Z,90.47
2019-02-18T03:48:29.033Z,90.47
2019-02-18T03:49:29.083Z,90.66
2019-02-18T03:50:29.046Z,90.47
2019-02-18T03:51:29.041Z,90.19
2019-02-18T03:52:29.051Z,89.81
2019-02-18T03:53:29.059Z,90.00
2019-02-18T03:54:29.062Z,89.53
2019-02-18T03:55:29.065Z,89.53
2019-02-18T03:56:29.078Z,89.05
2019-02-18T03:57:29.073Z,88.20
2019-02-18T03:58:29.080Z,87.62
2019-02-18T03:59:29.083Z,87.72
2019-02-18T04:00:29.085Z,86.87
2019-02-18T04:01:29.088Z,87.91
2019-02-18T04:02:29.095Z,88.62
2019-02-18T04:03:29.101Z,89.20
2019-02-18T04:04:29.100Z,89.29
2019-02-18T04:05:29.108Z,89.67
2019-02-18T04:06:29.110Z,89.48
2019-02-18T04:07:29.130Z,89.95
2019-02-18T04:08:29.118Z,89.58
2019-02-18T04:09:29.117Z,90.33
2019-02-18T04:10:29.131Z,90.24
2019-02-18T04:11:29.136Z,90.29
2019-02-18T04:12:29.139Z,90.86
2019-02-18T04:13:29.145Z,90.67
2019-02-18T04:14:29.148Z,90.67
2019-02-18T04:15:29.150Z,90.86
2019-02-18T04:16:29.154Z,90.48
2019-02-18T04:17:29.153Z,90.38
2019-02-18T04:18:29.163Z,90.38
2019-02-18T04:19:29.164Z,90.57
2019-02-18T04:20:29.169Z,90.57
2019-02-18T04:21:29.173Z,91.14
2019-02-18T04:22:29.177Z,90.86
2019-02-18T04:23:29.178Z,91.33
2019-02-18T04:24:29.208Z,91.71
2019-02-18T04:25:29.188Z,91.33
2019-02-18T04:26:29.193Z,91.42
2019-02-18T04:27:29.194Z,91.71
2019-02-18T04:28:29.195Z,91.71
2019-02-18T04:29:29.209Z,92.28
2019-02-18T04:30:29.210Z,91.90
2019-02-18T04:31:29.215Z,92.09
2019-02-18T04:32:29.217Z,91.80
2019-02-18T04:33:29.217Z,92.04
2019-02-18T04:34:29.223Z,91.94
2019-02-18T04:35:29.228Z,91.47
2019-02-18T04:36:29.246Z,91.28
2019-02-18T04:37:29.240Z,91.56
2019-02-18T04:38:29.239Z,91.66
2019-02-18T04:39:29.244Z,91.56
2019-02-18T04:40:29.241Z,91.66
2019-02-18T04:41:29.256Z,91.99
2019-02-18T04:42:29.258Z,91.99
2019-02-18T04:43:29.260Z,92.47
2019-02-18T04:44:29.263Z,92.85
2019-02-18T04:45:29.268Z,92.94
2019-02-18T04:46:29.273Z,93.32
2019-02-18T04:47:29.274Z,93.23
2019-02-18T04:48:29.295Z,93.61
2019-02-18T04:49:29.285Z,93.89
2019-02-18T04:50:29.290Z,93.70
2019-02-18T04:51:29.280Z,93.61
2019-02-18T04:52:29.286Z,93.61
2019-02-18T04:53:29.295Z,93.61
2019-02-18T04:54:29.301Z,93.70
2019-02-18T04:55:29.298Z,93.80
2019-02-18T04:56:29.306Z,93.13
2019-02-18T04:57:31.369Z,93.51
2019-02-18T04:58:29.311Z,93.13
2019-02-18T04:59:29.321Z,93.04
2019-02-18T05:00:29.322Z,93.04
2019-02-18T05:01:29.343Z,93.32
2019-02-18T05:02:29.333Z,93.51
2019-02-18T05:03:29.340Z,93.51
2019-02-18T05:04:29.338Z,93.13
2019-02-18T05:05:29.341Z,93.51
2019-02-18T05:06:29.346Z,93.41
2019-02-18T05:07:29.351Z,93.32
2019-02-18T05:08:29.351Z,93.23
2019-02-18T05:09:29.356Z,93.51
2019-02-18T05:10:29.363Z,92.85
2019-02-18T05:11:29.379Z,93.41
2019-02-18T05:12:29.370Z,93.89
2019-02-18T05:13:29.382Z,94.18
2019-02-18T05:14:29.386Z,94.27
2019-02-18T05:15:29.377Z,94.37
2019-02-18T05:16:29.380Z,94.18
2019-02-18T05:17:29.390Z,94.74
2019-02-18T05:18:29.388Z,94.93
2019-02-18T05:19:29.403Z,94.46
2019-02-18T05:20:29.407Z,94.56
2019-02-18T05:21:29.403Z,94.56
2019-02-18T05:22:29.405Z,94.84
2019-02-18T05:23:29.411Z,94.56
2019-02-18T05:24:29.410Z,94.56
2019-02-18T05:25:29.415Z,94.18
2019-02-18T05:26:29.421Z,94.27
2019-02-18T05:27:33.172Z,94.08
2019-02-18T05:28:29.426Z,94.37
2019-02-18T05:29:29.429Z,94.27
2019-02-18T05:30:29.688Z,94.18
2019-02-18T05:31:29.445Z,94.27
2019-02-18T05:32:29.436Z,93.84
2019-02-18T05:33:29.441Z,94.04
2019-02-18T05:34:29.449Z,94.70
2019-02-18T05:35:29.455Z,94.70
2019-02-18T05:36:29.457Z,95.17
2019-02-18T05:37:29.460Z,95.17
2019-02-18T05:38:29.466Z,95.07
2019-02-18T05:39:29.469Z,95.17
2019-02-18T05:40:29.471Z,95.65
2019-02-18T05:41:31.223Z,95.36
2019-02-18T05:42:29.479Z,95.55
2019-02-18T05:43:29.486Z,95.74
2019-02-18T05:44:29.485Z,96.41
2019-02-18T05:45:29.487Z,96.22
2019-02-18T05:46:29.500Z,95.65
2019-02-18T05:47:29.523Z,95.36
2019-02-18T05:48:29.495Z,95.93
2019-02-18T05:49:29.505Z,96.26
2019-02-18T05:50:29.508Z,95.60
2019-02-18T05:51:29.510Z,95.60
2019-02-18T05:52:29.523Z,95.79
2019-02-18T05:53:29.519Z,95.31
2019-02-18T05:54:29.513Z,95.31
2019-02-18T05:55:31.031Z,95.79
2019-02-18T05:56:29.526Z,95.65
2019-02-18T05:57:29.527Z,95.55
2019-02-18T05:58:29.530Z,95.60
2019-02-18T05:59:29.539Z,95.93
2019-02-18T06:00:29.543Z,95.98
2019-02-18T06:01:29.543Z,95.69
2019-02-18T06:02:29.614Z,95.50
2019-02-18T06:03:29.552Z,95.74
2019-02-18T06:04:29.549Z,95.98
2019-02-18T06:05:29.547Z,95.31
2019-02-18T06:06:29.556Z,95.31
2019-02-18T06:07:29.569Z,95.79
2019-02-18T06:08:29.572Z,95.79
2019-02-18T06:09:30.439Z,95.88
2019-02-18T06:10:29.570Z,96.08
2019-02-18T06:11:29.575Z,96.17
2019-02-18T06:12:29.578Z,95.98
2019-02-18T06:13:29.584Z,96.83
2019-02-18T06:14:29.594Z,96.64
2019-02-18T06:15:29.591Z,96.64
2019-02-18T06:16:29.602Z,96.36
2019-02-18T06:17:29.599Z,96.83
2019-02-18T06:18:29.604Z,96.64
2019-02-18T06:19:29.608Z,96.64
2019-02-18T06:20:29.607Z,96.64
2019-02-18T06:21:29.612Z,96.73
2019-02-18T06:22:29.611Z,96.92
2019-02-18T06:23:29.628Z,97.69
2019-02-18T06:24:29.617Z,98.07
2019-02-18T06:25:29.636Z,98.35
2019-02-18T06:26:29.629Z,98.35
2019-02-18T06:27:29.642Z,97.59
2019-02-18T06:28:29.637Z,97.31
2019-02-18T06:29:29.644Z,96.73
2019-02-18T06:30:29.642Z,96.73
2019-02-18T06:31:29.702Z,95.69
2019-02-18T06:32:29.646Z,95.69
2019-02-18T06:33:29.653Z,95.31
2019-02-18T06:34:29.658Z,94.56
2019-02-18T06:35:29.663Z,94.46
2019-02-18T06:36:29.663Z,95.31
2019-02-18T06:37:29.666Z,95.12
2019-02-18T06:38:29.673Z,95.79
2019-02-18T06:39:40.167Z,95.60
2019-02-18T06:40:29.681Z,95.22
2019-02-18T06:41:29.678Z,95.60
2019-02-18T06:42:29.684Z,95.98
2019-02-18T06:43:29.691Z,96.73
2019-02-18T06:44:29.694Z,96.92
2019-02-18T06:45:29.699Z,97.12
2019-02-18T06:46:29.703Z,97.69
2019-02-18T06:47:29.706Z,96.83
2019-02-18T06:48:29.703Z,96.73
2019-02-18T06:49:29.709Z,96.17
2019-02-18T06:50:29.719Z,95.03
2019-02-18T06:51:29.717Z,94.84
2019-02-18T06:52:29.726Z,94.08
2019-02-18T06:53:29.727Z,93.51
2019-02-18T06:54:29.735Z,93.37
2019-02-18T06:55:29.729Z,92.90
2019-02-18T06:56:29.732Z,92.52
2019-02-18T06:57:29.738Z,91.94
2019-02-18T06:58:29.746Z,92.61
2019-02-18T06:59:29.756Z,92.42
2019-02-18T07:00:29.747Z,92.33
2019-02-18T07:01:29.750Z,92.42
2019-02-18T07:02:29.758Z,92.52
2019-02-18T07:03:29.762Z,92.18
2019-02-18T07:04:30.485Z,92.38
2019-02-18T07:05:29.773Z,92.76
2019-02-18T07:06:29.774Z,92.38
2019-02-18T07:07:29.783Z,92.57
2019-02-18T07:08:29.778Z,92.38
2019-02-18T07:10:29.784Z,93.23
2019-02-18T07:11:29.787Z,93.13
2019-02-18T07:12:29.796Z,93.51
2019-02-18T07:13:29.800Z,94.27
2019-02-18T07:14:29.801Z,94.08
2019-02-18T07:15:29.805Z,94.18
2019-02-18T07:16:29.805Z,94.56
2019-02-18T07:17:29.813Z,94.93
2019-02-18T07:18:29.819Z,95.31
2019-02-18T07:19:29.837Z,95.03
2019-02-18T07:20:29.823Z,94.65
2019-02-18T07:21:29.835Z,95.31
2019-02-18T07:22:29.831Z,94.93
2019-02-18T07:23:29.834Z,95.03
2019-02-18T07:24:29.842Z,95.12
2019-02-18T07:25:29.842Z,95.31
2019-02-18T07:26:29.849Z,95.03
2019-02-18T07:27:29.850Z,95.12
2019-02-18T07:28:29.852Z,95.03
2019-02-18T07:29:29.855Z,95.03
2019-02-18T07:30:29.860Z,94.93
2019-02-18T07:31:29.875Z,94.93
2019-02-18T07:32:29.888Z,95.03
2019-02-18T07:33:29.878Z,95.03
2019-02-18T07:34:29.878Z,95.17
2019-02-18T07:35:29.882Z,95.27
2019-02-18T07:36:29.882Z,95.07
2019-02-18T07:37:29.890Z,95.17
2019-02-18T07:38:29.891Z,94.03
2019-02-18T07:39:29.900Z,94.42
2019-02-18T07:40:29.898Z,94.03
2019-02-18T07:41:29.909Z,93.46
2019-02-18T07:42:29.913Z,92.71
2019-02-18T07:43:29.918Z,92.80
2019-02-18T07:44:29.908Z,92.23
2019-02-18T07:45:29.923Z,92.23
2019-02-18T07:46:29.923Z,92.52
2019-02-18T07:47:29.927Z,92.71
2019-02-18T07:48:29.934Z,91.85
2019-02-18T07:49:29.936Z,91.66
2019-02-18T07:50:29.940Z,90.81
2019-02-18T07:51:29.956Z,90.33
2019-02-18T07:52:29.965Z,90.52
2019-02-18T07:53:29.969Z,90.19
2019-02-18T07:54:29.960Z,90.57
2019-02-18T07:55:29.983Z,89.62
2019-02-18T07:56:29.968Z,89.90
2019-02-18T07:57:29.972Z,89.43
2019-02-18T07:58:29.982Z,88.95
2019-02-18T07:59:29.982Z,89.14
2019-02-18T08:00:29.986Z,88.20
2019-02-18T08:01:29.987Z,87.53
2019-02-18T08:02:30.010Z,87.34
2019-02-18T08:03:29.998Z,87.05
2019-02-18T08:04:30.003Z,86.49
2019-02-18T08:05:30.007Z,86.11
2019-02-18T08:06:30.008Z,86.11
2019-02-18T08:07:30.019Z,85.96
2019-02-18T08:08:30.025Z,85.49
2019-02-18T08:09:30.120Z,85.01
2019-02-18T08:10:30.062Z,85.20
2019-02-18T08:11:30.221Z,84.25
2019-02-18T08:12:30.033Z,84.53
2019-02-18T08:13:30.137Z,84.82
2019-02-18T08:14:30.124Z,84.44
2019-02-18T08:15:30.215Z,83.78
2019-02-18T08:16:30.167Z,83.97
2019-02-18T08:17:30.078Z,84.16
2019-02-18T08:18:30.105Z,84.10
2019-02-18T08:19:30.084Z,83.53
2019-02-18T08:20:30.094Z,83.53
2019-02-18T08:21:30.091Z,82.49
2019-02-18T08:22:30.116Z,81.44
2019-02-18T08:23:30.108Z,81.38
2019-02-18T08:24:30.120Z,81.01
2019-02-18T08:25:30.142Z,81.01
2019-02-18T08:26:30.141Z,80.44
2019-02-18T08:27:30.151Z,79.24
2019-02-18T08:28:30.162Z,78.91
2019-02-18T08:29:30.176Z,78.72
2019-02-18T08:30:30.186Z,78.82
2019-02-18T08:31:30.193Z,79.20
2019-02-18T08:32:30.203Z,79.68
2019-02-18T08:33:30.212Z,80.21
2019-02-18T08:34:30.233Z,80.82
2019-02-18T08:35:30.239Z,80.24
2019-02-18T08:36:30.250Z,80.05
2019-02-18T08:37:30.430Z,79.20
2019-02-18T08:38:30.277Z,78.82
2019-02-18T08:39:30.284Z,78.38
2019-02-18T08:41:30.324Z,77.53
2019-02-18T08:42:30.327Z,76.90
2019-02-18T08:43:30.346Z,75.76
2019-02-18T08:44:30.350Z,75.99
2019-02-18T08:45:30.362Z,74.84
2019-02-18T08:46:30.373Z,73.26
2019-02-18T08:47:30.414Z,71.83
2019-02-18T08:48:30.403Z,70.63
2019-02-18T08:49:30.427Z,69.39
2019-02-18T08:50:30.437Z,68.76
2019-02-18T08:51:30.467Z,68.09
2019-02-18T08:52:30.473Z,67.33
2019-02-18T08:54:30.496Z,65.93
2019-02-18T08:55:30.511Z,66.12
2019-02-18T08:56:30.521Z,65.58
2019-02-18T08:57:30.552Z,65.20
2019-02-18T08:58:30.565Z,64.05
2019-02-18T08:59:30.573Z,63.70
2019-02-18T09:00:30.580Z,63.13
2019-02-18T09:01:30.604Z,62.68
2019-02-18T09:02:30.616Z,62.11
2019-02-18T09:03:30.632Z,61.25
2019-02-18T09:04:30.651Z,60.71
2019-02-18T09:05:30.712Z,60.71
2019-02-18T09:06:30.679Z,59.75
2019-02-18T09:07:30.712Z,58.92
2019-02-18T09:08:30.714Z,58.44
2019-02-18T09:09:30.725Z,57.48
2019-02-18T09:10:33.476Z,57.42
2019-02-18T09:11:30.766Z,57.32
2019-02-18T09:12:30.773Z,56.46
2019-02-18T09:13:30.795Z,55.79
2019-02-18T09:14:30.811Z,55.24
2019-02-18T09:15:30.839Z,54.96
2019-02-18T09:16:30.848Z,54.96
2019-02-18T09:17:30.858Z,54.96
2019-02-18T09:18:30.874Z,54.60
2019-02-18T09:19:30.899Z,54.03
2019-02-18T09:20:30.913Z,53.07
2019-02-18T09:21:30.918Z,52.87
2019-02-18T09:22:30.940Z,52.71
2019-02-18T09:23:30.953Z,51.95
2019-02-18T09:24:30.972Z,51.75
2019-02-18T09:25:30.990Z,52.04
2019-02-18T09:26:31.013Z,51.30
2019-02-18T09:27:31.031Z,50.82
2019-02-18T09:28:31.037Z,50.24
2019-02-18T09:29:31.063Z,49.69
2019-02-18T09:30:31.076Z,49.41
2019-02-18T09:31:31.088Z,49.24
2019-02-18T09:32:31.108Z,48.66
2019-02-18T09:33:31.123Z,47.32
2019-02-18T09:34:31.151Z,48.11
2019-02-18T09:35:31.148Z,47.72
2019-02-18T09:36:31.175Z,47.53
2019-02-18T09:37:31.184Z,46.89
2019-02-18T09:38:31.209Z,46.41
2019-02-18T09:39:31.712Z,46.04
2019-02-18T09:40:31.241Z,45.56
2019-02-18T09:41:31.259Z,45.32
2019-02-18T09:42:31.276Z,46.86
2019-02-18T09:43:31.291Z,47.32
2019-02-18T09:44:31.303Z,47.58
2019-02-18T09:45:31.323Z,48.61
2019-02-18T09:46:31.342Z,48.40
2019-02-18T09:47:31.376Z,49.55
2019-02-18T09:48:31.377Z,49.96
2019-02-18T09:49:31.397Z,48.93
2019-02-18T09:50:31.422Z,47.99
2019-02-18T09:51:31.428Z,46.28
2019-02-18T09:52:31.448Z,44.84
2019-02-18T09:53:31.465Z,44.54
2019-02-18T09:54:31.490Z,45.21
2019-02-18T09:55:31.498Z,45.47
2019-02-18T09:56:31.514Z,45.95
2019-02-18T09:57:31.534Z,46.41
2019-02-18T09:58:31.566Z,47.27
2019-02-18T09:59:32.538Z,47.44
2019-02-18T10:00:31.577Z,47.46
2019-02-18T10:01:31.609Z,47.37
2019-02-18T10:02:31.619Z,47.56
2019-02-18T10:03:32.447Z,47.37
2019-02-18T10:04:31.651Z,46.79
2019-02-18T10:05:31.670Z,46.91
2019-02-18T10:06:31.686Z,46.60
2019-02-18T10:07:31.708Z,46.31
2019-02-18T10:08:31.729Z,46.50
2019-02-18T10:09:31.740Z,46.89
2019-02-18T10:10:31.760Z,46.91
2019-02-18T10:11:31.777Z,46.24
2019-02-18T10:12:31.793Z,45.78
2019-02-18T10:13:31.817Z,45.32
2019-02-18T10:14:31.820Z,44.29
2019-02-18T10:15:31.845Z,44.08
2019-02-18T10:16:31.874Z,43.98
2019-02-18T10:17:31.894Z,44.08
2019-02-18T10:18:31.906Z,44.27
2019-02-18T10:19:31.912Z,44.56
2019-02-18T10:20:31.930Z,44.46
2019-02-18T10:21:31.949Z,44.37
2019-02-18T10:22:31.966Z,44.17
2019-02-18T10:23:31.981Z,43.62
2019-02-18T10:24:31.997Z,43.14
2019-02-18T10:25:32.022Z,43.04
2019-02-18T10:26:32.039Z,43.79
2019-02-18T10:27:32.055Z,43.64
2019-02-18T10:28:32.066Z,42.80
2019-02-18T10:29:32.095Z,42.03
2019-02-18T10:30:32.105Z,41.95
2019-02-18T10:31:32.123Z,40.99
2019-02-18T10:32:32.141Z,40.91
2019-02-18T10:33:32.166Z,39.87
2019-02-18T10:34:32.175Z,39.76
2019-02-18T10:35:32.196Z,40.41
2019-02-18T10:36:32.212Z,40.22
2019-02-18T10:37:32.236Z,40.63
2019-02-18T10:38:32.251Z,39.47
2019-02-18T10:39:32.281Z,39.01
2019-02-18T10:40:32.297Z,38.91
2019-02-18T10:41:32.299Z,39.01
2019-02-18T10:42:32.326Z,39.59
2019-02-18T10:43:32.886Z,39.29
2019-02-18T10:44:32.350Z,38.45
2019-02-18T10:45:32.364Z,37.77
2019-02-18T10:46:32.386Z,38.16
2019-02-18T10:47:32.418Z,38.14
2019-02-18T10:48:32.431Z,39.03
2019-02-18T10:49:32.443Z,38.45
2019-02-18T10:50:32.466Z,37.87
2019-02-18T10:51:32.476Z,38.62
2019-02-18T10:52:32.495Z,38.33
2019-02-18T10:53:32.513Z,38.79
2019-02-18T10:54:32.529Z,39.37
2019-02-18T10:55:32.553Z,38.97
2019-02-18T10:56:32.570Z,39.37
2019-02-18T10:57:32.588Z,38.89
2019-02-18T10:58:32.607Z,38.53
2019-02-18T10:59:32.625Z,37.85
2019-02-18T11:00:32.648Z,38.24
2019-02-18T11:01:32.677Z,38.26
2019-02-18T11:02:32.679Z,38.08
2019-02-18T11:03:32.703Z,36.83
2019-02-18T11:04:32.717Z,36.54
2019-02-18T11:05:32.740Z,36.61
2019-02-18T11:06:32.759Z,37.06
2019-02-18T11:07:32.784Z,37.83
2019-02-18T11:08:32.783Z,38.04
2019-02-18T11:09:32.804Z,37.66
2019-02-18T11:10:32.844Z,37.01
2019-02-18T11:11:32.842Z,37.02
2019-02-18T11:12:32.858Z,36.81
2019-02-18T11:13:32.881Z,36.44
2019-02-18T11:14:32.895Z,36.17
2019-02-18T11:15:32.910Z,35.72
2019-02-18T11:16:32.929Z,34.53
2019-02-18T11:17:38.975Z,35.21
2019-02-18T11:18:32.967Z,35.77
2019-02-18T11:19:32.985Z,36.23
2019-02-18T11:20:33.004Z,36.54
2019-02-18T11:21:33.014Z,36.55
2019-02-18T11:22:33.046Z,35.52
2019-02-18T11:23:33.046Z,35.28
2019-02-18T11:24:33.062Z,36.23
2019-02-18T11:25:33.087Z,36.55
2019-02-18T11:26:33.110Z,36.07
2019-02-18T11:27:33.122Z,35.98
2019-02-18T11:28:33.144Z,36.09
2019-02-18T11:29:33.159Z,35.53
2019-02-18T11:30:33.182Z,34.12
2019-02-18T11:31:33.204Z,33.52
2019-02-18T11:32:33.209Z,33.52
2019-02-18T11:33:33.235Z,33.54
2019-02-18T11:34:33.251Z,33.36
2019-02-18T11:35:33.273Z,33.26
2019-02-18T11:36:33.283Z,32.51
2019-02-18T11:37:33.306Z,32.51
2019-02-18T11:38:33.323Z,33.05
2019-02-18T11:39:33.339Z,33.07
2019-02-18T11:40:33.361Z,32.75
2019-02-18T11:41:33.375Z,33.23
2019-02-18T11:42:33.399Z,34.18
2019-02-18T11:43:33.467Z,35.11
2019-02-18T11:44:33.430Z,36.13
2019-02-18T11:45:34.883Z,36.46
2019-02-18T11:46:33.470Z,35.92
2019-02-18T11:47:33.497Z,35.05
2019-02-18T11:48:33.497Z,35.06
2019-02-18T11:49:33.522Z,34.60
2019-02-18T11:50:33.539Z,34.02
2019-02-18T11:51:33.557Z,34.34
2019-02-18T11:52:33.588Z,33.09
2019-02-18T11:53:33.579Z,32.42
2019-02-18T11:54:33.614Z,32.10
2019-02-18T11:55:33.627Z,32.97
2019-02-18T11:56:33.647Z,33.25
2019-02-18T11:57:33.663Z,32.99
2019-02-18T11:58:33.682Z,32.62
2019-02-18T11:59:33.704Z,32.15
2019-02-18T12:00:33.717Z,31.49
2019-02-18T12:01:33.737Z,31.26
2019-02-18T12:02:33.755Z,31.44
2019-02-18T12:03:33.768Z,31.88
2019-02-18T12:04:33.792Z,32.91
2019-02-18T12:05:33.822Z,33.52
2019-02-18T12:06:33.826Z,32.96
2019-02-18T12:07:33.845Z,32.70
2019-02-18T12:08:33.870Z,31.93
2019-02-18T12:09:33.879Z,32.49
2019-02-18T12:10:33.905Z,32.49
2019-02-18T12:11:38.113Z,31.93
2019-02-18T12:12:33.932Z,31.54
2019-02-18T12:13:33.960Z,31.16
2019-02-18T12:14:33.979Z,30.69
2019-02-18T12:15:33.998Z,30.58
2019-02-18T12:16:34.024Z,30.96
2019-02-18T12:17:34.042Z,31.73
2019-02-18T12:18:34.099Z,31.71
2019-02-18T12:19:34.070Z,32.17
2019-02-18T12:20:34.087Z,32.67
2019-02-18T12:21:34.098Z,32.49
2019-02-18T12:22:34.118Z,32.31
2019-02-18T12:23:34.136Z,31.81
2019-02-18T12:24:34.145Z,32.12
2019-02-18T12:25:34.180Z,32.31
2019-02-18T12:26:34.185Z,31.74
2019-02-18T12:27:34.213Z,32.02
2019-02-18T12:28:34.226Z,31.73
2019-02-18T12:29:34.250Z,31.74
2019-02-18T12:31:34.280Z,31.65
2019-02-18T12:32:34.293Z,30.79
2019-02-18T12:33:34.323Z,30.51
2019-02-18T12:34:34.338Z,30.21
2019-02-18T12:35:34.362Z,30.39
2019-02-18T12:36:34.373Z,30.86
2019-02-18T12:37:34.395Z,30.88
2019-02-18T12:38:34.410Z,30.11
2019-02-18T12:39:34.429Z,29.94
2019-02-18T12:40:34.449Z,29.47
2019-02-18T12:41:34.525Z,29.27
2019-02-18T12:42:34.494Z,29.81
2019-02-18T12:43:34.499Z,31.41
2019-02-18T12:44:34.521Z,31.83
2019-02-18T12:45:34.537Z,31.05
2019-02-18T12:46:34.558Z,30.60
2019-02-18T12:47:34.577Z,30.29
2019-02-18T12:48:35.308Z,31.12
2019-02-18T12:49:34.621Z,32.64
2019-02-18T12:50:34.632Z,33.37
2019-02-18T12:51:34.655Z,34.06
2019-02-18T12:52:34.669Z,33.33
2019-02-18T12:53:34.692Z,33.04
2019-02-18T12:54:34.716Z,32.46
2019-02-18T12:55:34.902Z,33.10
2019-02-18T12:56:34.734Z,34.24
2019-02-18T12:57:34.755Z,34.18